Western Head, Canada
Current Conditions -  °F | °C
As of 8:00 AM on Friday 31 Oct 2014 (Local Time) from CYZX Reporting Station
Few Clouds Few Clouds  
Wind Chill:   Ceiling: Unl
Heat Index:   Visibility: 8mi
Dew Point: -1°   Wind: 0mph
Humidity: 93%   Direction: NA
Pressure: 30.02"   Gusts: NA
Location:  43.99°N, 64.68°W
Report Text: CYZX 311100Z 00000KT 8SM FEW060 M00/M01 A3002 RMK SC2 WNDY HILL 08007KT FG BANK NW VIS LWR NW SLP169
Loading
Personal Weather Stations






























Interactive Weather Map
Tropical Storm Tracking
New forecast layout! Learn more

10-Day Weather Forecast

Advertisements
Track Severe Weather on mobile